Time;durP1;ratioP1;P1;durP2;ratioP2;P2;SDS_P1;SDS_P2;PMS_P1;PMS_P2;Temp;Humidity;BMP_temperature;BMP_pressure;BME280_temperature;BME280_humidity;BME280_pressure;Samples;Min_cycle;Max_cycle;Signal;HPM_P1;HPM_P2
2023/10/02 00:04:16;;;;;;;7.13;5.13;;;;;;;13.90;100.00;99039.44;15298035;19;20100;-51
2023/10/02 00:09:36;;;;;;;6.72;5.40;;;;;;;13.89;100.00;99029.59;15295687;19;20015;-50
2023/10/02 00:15:12;;;;;;;5.80;4.90;;;;;;;13.84;100.00;99028.25;15294791;19;20274;-48
2023/10/02 00:20:39;;;;;;;5.88;4.82;;;;;;;13.83;100.00;99023.00;15297762;19;20081;-49
2023/10/02 00:26:06;;;;;;;6.70;4.95;;;;;;;13.80;100.00;99016.06;15292764;19;20014;-48
2023/10/02 00:31:42;;;;;;;6.72;5.15;;;;;;;13.78;100.00;99023.50;15292949;19;20010;-49
2023/10/02 00:37:15;;;;;;;5.90;4.78;;;;;;;13.78;100.00;99023.50;15290611;19;20022;-48
2023/10/02 00:42:40;;;;;;;6.35;5.05;;;;;;;13.75;100.00;99026.53;15296896;19;20017;-46
2023/10/02 00:53:53;;;;;;;5.38;4.65;;;;;;;13.74;100.00;99026.72;15294629;19;20523;-50
2023/10/02 00:59:23;;;;;;;6.70;4.50;;;;;;;13.71;100.00;99022.47;15292907;19;20014;-52
2023/10/02 01:04:47;;;;;;;5.55;4.60;;;;;;;13.69;100.00;99013.69;15288297;19;20018;-49
2023/10/02 01:10:23;;;;;;;6.13;4.70;;;;;;;13.65;100.00;99013.13;15293143;19;20017;-49
2023/10/02 01:15:50;;;;;;;5.65;4.65;;;;;;;13.63;100.00;99022.44;15290288;19;20337;-50
2023/10/02 01:21:18;;;;;;;6.65;4.90;;;;;;;13.59;100.00;99029.19;15292375;19;20414;-49
2023/10/02 01:26:50;;;;;;;6.28;4.85;;;;;;;13.56;100.00;99025.84;15288222;19;20020;-50
2023/10/02 01:32:17;;;;;;;6.75;4.43;;;;;;;13.54;100.00;99027.84;15291546;19;20085;-50
2023/10/02 01:37:46;;;;;;;5.75;4.70;;;;;;;13.51;100.00;99020.06;15280588;19;20600;-51
2023/10/02 01:43:17;;;;;;;5.38;4.28;;;;;;;13.48;100.00;99022.25;15292902;19;20022;-48
2023/10/02 01:48:44;;;;;;;5.30;4.45;;;;;;;13.46;100.00;99013.44;15287969;19;20493;-49
2023/10/02 01:54:16;;;;;;;7.00;4.70;;;;;;;13.43;100.00;99022.75;15288011;19;20015;-50
2023/10/02 01:59:45;;;;;;;5.55;4.50;;;;;;;13.41;100.00;99024.78;15289624;19;20029;-48
2023/10/02 02:05:15;;;;;;;4.80;4.28;;;;;;;13.38;100.00;99027.78;15289599;19;20738;-47
2023/10/02 02:10:39;;;;;;;6.00;4.50;;;;;;;13.33;100.00;99025.56;15283000;19;20085;-49
2023/10/02 02:16:09;;;;;;;5.13;4.40;;;;;;;13.32;100.00;99017.63;15284089;19;20031;-48
2023/10/02 02:21:34;;;;;;;6.32;4.53;;;;;;;13.29;100.00;99023.34;15290994;19;20014;-48
2023/10/02 02:27:04;;;;;;;5.32;4.53;;;;;;;13.26;100.00;99029.94;15283629;19;20029;-48
2023/10/02 02:32:44;;;;;;;6.72;4.78;;;;;;;13.21;100.00;99021.47;15287561;19;20014;-46
2023/10/02 02:38:18;;;;;;;5.35;4.47;;;;;;;13.17;100.00;99020.94;15279041;19;20021;-49
2023/10/02 02:43:46;;;;;;;5.68;4.28;;;;;;;13.15;100.00;99017.53;15288094;19;20010;-49
2023/10/02 02:49:17;;;;;;;7.47;4.80;;;;;;;13.14;100.00;99013.16;15282268;19;20011;-49
2023/10/02 02:54:44;;;;;;;5.00;4.45;;;;;;;13.17;100.00;99015.53;15284889;19;20557;-48
2023/10/02 03:00:29;;;;;;;5.45;4.28;;;;;;;13.16;100.00;99011.13;15284790;19;20018;-46
2023/10/02 03:05:58;;;;;;;5.43;4.55;;;;;;;13.21;100.00;99010.63;15281224;19;20621;-47
2023/10/02 03:11:28;;;;;;;6.70;4.05;;;;;;;13.21;100.00;99008.78;15281233;19;20458;-47
2023/10/02 03:16:54;;;;;;;5.60;4.53;;;;;;;13.23;100.00;99008.63;15281872;19;20093;-49
2023/10/02 03:22:24;;;;;;;4.88;4.30;;;;;;;13.21;100.00;99013.34;15284907;19;20894;-48
2023/10/02 03:27:49;;;;;;;5.10;4.18;;;;;;;13.20;100.00;99009.81;15293427;19;20477;-49
2023/10/02 03:33:20;;;;;;;5.60;4.15;;;;;;;13.16;100.00;99003.00;15301359;19;20102;-47
2023/10/02 03:38:48;;;;;;;4.70;4.10;;;;;;;13.13;100.00;99014.16;15293158;19;20031;-47
2023/10/02 03:44:14;;;;;;;5.63;4.25;;;;;;;13.12;100.00;99011.63;14784166;19;10000303;-48
2023/10/02 03:49:38;;;;;;;4.65;3.88;;;;;;;13.11;100.00;99005.38;15298997;19;20078;-47
2023/10/02 03:55:17;;;;;;;5.53;4.30;;;;;;;13.09;100.00;99007.41;15298631;19;20018;-48
2023/10/02 04:00:50;;;;;;;4.90;4.05;;;;;;;13.08;100.00;98997.59;15273492;19;20090;-48
2023/10/02 04:06:15;;;;;;;5.13;4.13;;;;;;;13.05;100.00;98996.03;15293931;19;20082;-48
2023/10/02 04:11:43;;;;;;;5.93;4.15;;;;;;;13.02;100.00;98990.09;15298996;19;20014;-47
2023/10/02 04:17:20;;;;;;;5.38;4.18;;;;;;;12.94;100.00;98999.88;15287958;19;20017;-47
2023/10/02 04:22:46;;;;;;;6.05;4.18;;;;;;;12.89;100.00;98994.09;15297733;19;20019;-48
2023/10/02 04:28:15;;;;;;;5.78;4.10;;;;;;;12.88;100.00;98994.28;15291367;19;20017;-49
2023/10/02 04:33:39;;;;;;;4.68;3.97;;;;;;;12.85;100.00;98981.94;15296767;19;20114;-49
2023/10/02 04:39:04;;;;;;;5.47;3.90;;;;;;;12.80;100.00;98978.88;15288659;19;20015;-48
2023/10/02 04:44:44;;;;;;;4.35;3.72;;;;;;;12.79;100.00;98980.72;15295146;19;20558;-48
2023/10/02 04:55:48;;;;;;;4.88;3.90;;;;;;;12.73;100.00;98977.81;15291944;19;20014;-47
2023/10/02 05:01:34;;;;;;;4.32;3.92;;;;;;;12.72;100.00;98984.25;15294860;19;20006;-47
2023/10/02 05:07:04;;;;;;;6.28;3.70;;;;;;;12.68;100.00;98999.06;15290171;19;20038;-46
2023/10/02 05:12:31;;;;;;;4.03;3.63;;;;;;;12.68;100.00;98988.25;15293358;19;20078;-46
2023/10/02 05:17:59;;;;;;;6.82;3.92;;;;;;;12.67;100.00;98991.97;15288617;19;20017;-46
2023/10/02 05:23:23;;;;;;;5.75;3.80;;;;;;;12.65;100.00;98992.13;15289404;19;20027;-49
2023/10/02 05:28:50;;;;;;;4.40;3.80;;;;;;;12.66;100.00;98984.88;15290349;19;20017;-48
2023/10/02 05:34:25;;;;;;;5.10;3.65;;;;;;;12.61;100.00;98983.50;15289476;19;20017;-51
2023/10/02 05:39:50;;;;;;;4.65;3.67;;;;;;;12.58;100.00;98993.81;15283211;19;20098;-50
2023/10/02 05:45:17;;;;;;;7.10;4.03;;;;;;;12.56;100.00;98993.94;15289645;19;20019;-55
2023/10/02 05:50:52;;;;;;;4.85;3.67;;;;;;;12.56;100.00;99007.47;15288942;19;20030;-55
2023/10/02 05:56:17;;;;;;;5.05;3.65;;;;;;;12.56;100.00;98999.34;15279548;19;20046;-53
2023/10/02 06:01:46;;;;;;;5.25;3.90;;;;;;;12.59;100.00;99011.69;15289687;19;20025;-57
2023/10/02 06:07:19;;;;;;;4.32;3.65;;;;;;;12.62;100.00;99001.44;15284013;19;20010;-52
2023/10/02 06:12:45;;;;;;;6.88;3.78;;;;;;;12.66;100.00;99004.66;15262615;19;20014;-57
2023/10/02 06:18:10;;;;;;;3.92;3.38;;;;;;;12.74;100.00;99003.84;15284415;19;20021;-57
2023/10/02 06:23:40;;;;;;;6.70;3.92;;;;;;;12.85;100.00;99006.28;15289383;19;20102;-55
2023/10/02 06:29:22;;;;;;;6.03;3.92;;;;;;;12.93;100.00;99013.59;15284852;19;20018;-54
2023/10/02 06:34:50;;;;;;;4.20;3.50;;;;;;;13.04;100.00;99013.31;15288984;19;20014;-55
2023/10/02 06:40:26;;;;;;;4.95;3.80;;;;;;;13.18;100.00;99016.38;15282138;19;20049;-52
2023/10/02 06:46:06;;;;;;;4.38;3.58;;;;;;;13.33;100.00;99014.75;15285547;19;20028;-55
2023/10/02 06:51:30;;;;;;;4.90;3.75;;;;;;;13.44;100.00;99023.59;15289155;19;20017;-55
2023/10/02 06:56:58;;;;;;;6.88;3.90;;;;;;;13.59;100.00;99015.66;15273377;19;20027;-55
2023/10/02 07:02:23;;;;;;;3.88;3.47;;;;;;;13.73;100.00;99015.03;15302160;19;20011;-56
2023/10/02 07:07:58;;;;;;;5.70;4.10;;;;;;;13.90;100.00;99006.94;15286522;19;20365;-56
2023/10/02 07:13:26;;;;;;;4.35;3.50;;;;;;;14.06;100.00;99008.78;15296761;19;20025;-55
2023/10/02 07:18:58;;;;;;;4.60;3.60;;;;;;;14.28;100.00;99013.53;15297630;19;20010;-53
2023/10/02 07:24:28;;;;;;;5.15;3.72;;;;;;;14.49;100.00;99010.28;15298843;19;20094;-53
2023/10/02 07:29:57;;;;;;;4.15;3.38;;;;;;;14.70;100.00;99011.63;15293408;19;20010;-57
2023/10/02 07:35:24;;;;;;;4.85;3.40;;;;;;;14.91;100.00;99002.91;15296106;19;20027;-55
2023/10/02 07:40:49;;;;;;;4.82;3.30;;;;;;;15.14;100.00;99007.56;15294642;19;20024;-56
2023/10/02 07:46:19;;;;;;;5.50;3.42;;;;;;;15.38;100.00;99005.75;15296077;19;20090;-57
2023/10/02 07:51:44;;;;;;;3.65;3.28;;;;;;;15.61;100.00;99000.34;15300528;19;20417;-57
2023/10/02 07:57:10;;;;;;;3.92;3.08;;;;;;;15.82;100.00;98991.56;15291947;19;20018;-57
2023/10/02 08:02:40;;;;;;;4.03;3.30;;;;;;;16.10;100.00;98992.88;15273525;19;20014;-56
2023/10/02 08:08:10;;;;;;;3.95;3.03;;;;;;;16.35;100.00;98987.22;15294138;19;20015;-56
2023/10/02 08:13:36;;;;;;;3.70;3.33;;;;;;;16.54;100.00;98994.00;15299276;19;20083;-58
2023/10/02 08:19:10;;;;;;;5.68;3.20;;;;;;;16.72;100.00;98988.22;15297042;19;20082;-54
2023/10/02 08:24:37;;;;;;;4.13;3.40;;;;;;;16.83;100.00;98985.03;15298900;19;20042;-54
2023/10/02 08:30:17;;;;;;;4.72;3.25;;;;;;;16.99;100.00;98983.19;15243572;19;20025;-58
2023/10/02 08:35:47;;;;;;;6.50;3.42;;;;;;;17.20;100.00;98980.50;15287023;19;20014;-58
2023/10/02 08:41:13;;;;;;;4.15;3.40;;;;;;;17.42;100.00;98980.56;15281214;19;20014;-61
2023/10/02 08:46:42;;;;;;;4.13;3.67;;;;;;;17.62;100.00;98980.78;15276364;19;20018;-57
2023/10/02 08:52:10;;;;;;;5.72;3.58;;;;;;;17.83;100.00;98979.09;15297263;19;20021;-56
2023/10/02 08:57:52;;;;;;;4.43;3.83;;;;;;;18.04;100.00;98975.56;15291084;19;20015;-57
2023/10/02 09:03:29;;;;;;;5.57;4.00;;;;;;;18.29;100.00;98972.38;15300174;19;20026;-60
2023/10/02 09:20:09;;;;;;;6.43;3.97;;;;;;;18.97;100.00;98960.88;15294223;19;20493;-59
2023/10/02 09:25:40;;;;;;;5.97;3.92;;;;;;;19.22;100.00;98960.38;15296459;19;20031;-57
2023/10/02 09:31:14;;;;;;;7.63;4.07;;;;;;;19.48;100.00;98953.28;15296322;19;20608;-57
2023/10/02 09:36:47;;;;;;;5.32;3.85;;;;;;;19.76;100.00;98955.03;15292381;19;20029;-55
2023/10/02 09:42:45;;;;;;;4.32;3.60;;;;;;;19.99;100.00;98951.94;15287563;19;20006;-59
2023/10/02 09:48:46;;;;;;;6.32;3.80;;;;;;;20.23;100.00;98955.06;15290037;19;20483;-59
2023/10/02 09:54:13;;;;;;;6.85;4.00;;;;;;;20.46;100.00;98939.03;15293311;19;20459;-59
2023/10/02 09:59:45;;;;;;;4.88;3.78;;;;;;;20.79;100.00;98940.06;15291470;19;20460;-60
2023/10/02 10:10:53;;;;;;;6.90;3.97;;;;;;;21.32;100.00;98939.00;15289550;19;20014;-58
2023/10/02 10:16:49;;;;;;;4.05;3.55;;;;;;;21.57;100.00;98934.66;15289923;19;20011;-56
2023/10/02 10:22:38;;;;;;;5.40;4.00;;;;;;;21.81;100.00;98939.38;15294891;19;20014;-61
2023/10/02 10:28:05;;;;;;;4.53;3.53;;;;;;;22.06;100.00;98924.81;15287684;19;20020;-59
2023/10/02 10:33:45;;;;;;;4.85;3.90;;;;;;;22.26;100.00;98921.06;15291300;19;20056;-58
2023/10/02 10:39:34;;;;;;;9.55;3.90;;;;;;;22.50;100.00;98921.28;15286437;19;20019;-58
2023/10/02 10:44:59;;;;;;;6.85;4.05;;;;;;;22.71;99.61;98906.25;15285635;19;20021;-58
2023/10/02 10:50:39;;;;;;;5.20;4.13;;;;;;;22.85;93.37;98904.22;15289444;19;20495;-58
2023/10/02 10:56:16;;;;;;;5.70;3.97;;;;;;;23.00;95.19;98893.66;15287357;19;20104;-60
2023/10/02 11:01:41;;;;;;;4.43;3.85;;;;;;;23.17;92.08;98895.78;15287833;19;20089;-58
2023/10/02 11:07:19;;;;;;;4.38;3.85;;;;;;;23.32;90.83;98881.63;15284629;19;20021;-60
2023/10/02 11:12:54;;;;;;;7.15;3.92;;;;;;;23.53;89.97;98872.03;15289318;19;20020;-56
2023/10/02 11:18:23;;;;;;;4.10;3.70;;;;;;;23.72;84.88;98875.53;15278510;19;20029;-56
2023/10/02 11:23:50;;;;;;;4.53;3.78;;;;;;;23.91;82.06;98857.03;15287522;19;20018;-60
2023/10/02 11:29:20;;;;;;;4.13;3.70;;;;;;;24.04;81.30;98861.47;15285927;19;20022;-59
2023/10/02 11:34:46;;;;;;;4.55;3.95;;;;;;;24.14;81.49;98860.91;15286615;19;20026;-59
2023/10/02 11:40:24;;;;;;;3.90;3.50;;;;;;;24.29;75.75;98855.72;15284568;19;20034;-57
2023/10/02 11:45:49;;;;;;;3.97;3.58;;;;;;;24.40;76.72;98850.47;15292272;19;20467;-56
2023/10/02 11:51:13;;;;;;;3.50;3.17;;;;;;;24.50;73.25;98858.09;15299062;19;20027;-57
2023/10/02 11:56:42;;;;;;;3.63;3.33;;;;;;;24.57;72.14;98856.06;15297481;19;20006;-59
2023/10/02 12:02:11;;;;;;;4.80;3.53;;;;;;;24.70;71.70;98852.22;15289931;19;20014;-57
2023/10/02 12:07:36;;;;;;;4.30;3.30;;;;;;;24.80;69.26;98846.91;15288564;19;20014;-60
2023/10/02 12:13:06;;;;;;;3.83;3.15;;;;;;;24.88;68.18;98843.78;15298800;19;20037;-56
2023/10/02 12:18:32;;;;;;;3.37;3.07;;;;;;;25.02;68.35;98829.69;15291288;19;20629;-59
2023/10/02 12:24:00;;;;;;;3.55;3.22;;;;;;;25.20;69.49;98828.66;15293226;19;20027;-58
2023/10/02 12:29:29;;;;;;;3.78;3.00;;;;;;;25.40;69.02;98822.69;15293433;19;20021;-57
2023/10/02 12:34:54;;;;;;;3.55;2.92;;;;;;;25.50;69.27;98814.63;15291955;19;20014;-59
2023/10/02 12:40:20;;;;;;;5.05;2.90;;;;;;;25.65;65.94;98813.19;15292116;19;20074;-61
2023/10/02 12:45:49;;;;;;;3.22;2.90;;;;;;;25.84;65.54;98809.09;15293950;19;21263;-59
2023/10/02 12:51:14;;;;;;;3.25;2.95;;;;;;;26.02;65.66;98807.16;15294747;19;20011;-59
2023/10/02 12:56:39;;;;;;;3.35;2.95;;;;;;;26.00;64.07;98801.88;15286483;19;20022;-54
2023/10/02 13:02:08;;;;;;;3.33;3.03;;;;;;;26.11;61.70;98799.28;15287305;19;20013;-54
2023/10/02 13:07:32;;;;;;;3.50;3.10;;;;;;;26.18;63.00;98794.44;15287532;19;20014;-57
2023/10/02 13:12:57;;;;;;;3.40;3.10;;;;;;;26.35;60.53;98788.88;15294993;19;20512;-56
2023/10/02 13:18:27;;;;;;;4.28;3.00;;;;;;;26.75;63.68;98779.38;15287842;19;20021;-58
2023/10/02 13:23:53;;;;;;;2.90;2.60;;;;;;;26.97;60.35;98770.28;15289999;19;20010;-56
2023/10/02 13:29:19;;;;;;;3.08;2.78;;;;;;;27.36;60.76;98770.06;15291188;19;20523;-57
2023/10/02 13:34:47;;;;;;;3.05;2.58;;;;;;;27.56;56.57;98765.84;15292608;19;20022;-56
2023/10/02 13:46:14;;;;;;;3.85;2.80;;;;;;;28.10;52.89;98750.16;15284471;19;20393;-57
2023/10/02 13:51:44;;;;;;;3.15;2.78;;;;;;;28.20;55.52;98739.13;15292461;19;20035;-54
2023/10/02 13:57:09;;;;;;;6.82;2.80;;;;;;;28.48;52.63;98730.66;15283113;19;20010;-57
2023/10/02 14:02:33;;;;;;;3.05;2.75;;;;;;;28.54;54.17;98727.63;15289309;19;20015;-58
2023/10/02 14:08:01;;;;;;;7.38;2.70;;;;;;;28.53;50.98;98714.03;15282392;19;20031;-58
2023/10/02 14:13:25;;;;;;;6.55;2.55;;;;;;;28.70;53.31;98714.63;15290324;19;20040;-57
2023/10/02 14:18:51;;;;;;;3.20;2.70;;;;;;;28.90;50.66;98719.41;15276081;19;20022;-58
2023/10/02 14:24:19;;;;;;;2.70;2.50;;;;;;;28.99;50.24;98710.56;15288885;19;20031;-59
2023/10/02 14:29:44;;;;;;;2.75;2.42;;;;;;;29.11;49.04;98705.56;15278990;19;20016;-58
2023/10/02 14:35:09;;;;;;;4.32;2.60;;;;;;;28.98;50.43;98706.13;15286805;19;20092;-56
2023/10/02 14:40:38;;;;;;;3.50;2.47;;;;;;;29.19;47.37;98693.09;15284605;19;20045;-57
2023/10/02 14:46:04;;;;;;;2.60;2.20;;;;;;;29.44;48.42;98692.28;15285309;19;20038;-58
2023/10/02 14:51:29;;;;;;;5.18;2.78;;;;;;;29.44;47.40;98686.72;15289152;19;20490;-54
2023/10/02 14:56:56;;;;;;;3.17;2.50;;;;;;;29.44;47.90;98683.97;15282610;19;20433;-55
2023/10/02 15:02:21;;;;;;;4.38;2.50;;;;;;;29.52;48.00;98679.75;15282806;19;20029;-52
2023/10/02 15:07:46;;;;;;;3.05;2.75;;;;;;;29.39;46.82;98675.63;15285908;19;20019;-55
2023/10/02 15:13:14;;;;;;;3.58;2.30;;;;;;;29.28;45.71;98669.25;15287080;19;20352;-54
2023/10/02 15:18:39;;;;;;;4.45;2.63;;;;;;;29.20;48.07;98667.00;15286830;19;20031;-55
2023/10/02 15:24:07;;;;;;;3.42;2.03;;;;;;;28.99;45.10;98682.84;15303646;19;20031;-52
2023/10/02 15:29:34;;;;;;;3.15;2.20;;;;;;;28.86;47.06;98682.28;15302719;19;20546;-53
2023/10/02 15:34:59;;;;;;;4.13;2.17;;;;;;;28.86;46.90;98678.66;15296712;19;20025;-53
2023/10/02 15:40:24;;;;;;;2.50;1.90;;;;;;;28.84;46.19;98681.72;15299035;19;20018;-52
2023/10/02 15:45:54;;;;;;;3.92;1.90;;;;;;;28.72;43.85;98679.19;15300164;19;20427;-52
2023/10/02 15:51:18;;;;;;;2.10;1.90;;;;;;;28.49;45.48;98672.19;15304366;19;20589;-54
2023/10/02 15:56:44;;;;;;;2.05;1.85;;;;;;;28.19;45.35;98670.97;15289302;19;20030;-51
2023/10/02 16:02:11;;;;;;;3.95;2.00;;;;;;;27.94;46.48;98671.69;15296684;19;20025;-53
2023/10/02 16:07:38;;;;;;;2.20;1.83;;;;;;;27.73;46.48;98681.81;15291941;19;20024;-54
2023/10/02 16:13:05;;;;;;;2.15;1.88;;;;;;;27.51;47.08;98672.56;15300841;19;20074;-55
2023/10/02 16:18:32;;;;;;;2.80;1.83;;;;;;;27.13;46.46;98671.69;15294266;19;20014;-53
2023/10/02 16:23:58;;;;;;;4.07;2.10;;;;;;;26.79;47.15;98674.72;15287558;19;20014;-54
2023/10/02 16:29:23;;;;;;;2.75;2.20;;;;;;;26.43;47.84;98671.56;15298145;19;20309;-52
2023/10/02 16:34:51;;;;;;;3.28;2.10;;;;;;;26.23;48.20;98666.63;15298801;19;20019;-54
2023/10/02 16:40:18;;;;;;;4.22;2.22;;;;;;;25.95;47.64;98662.94;15293262;19;20059;-52
2023/10/02 16:45:44;;;;;;;3.13;2.17;;;;;;;25.66;49.18;98657.59;15294226;19;20837;-57
2023/10/02 16:51:15;;;;;;;6.63;3.38;;;;;;;25.43;48.67;98676.03;15295451;19;20489;-53
2023/10/02 16:56:42;;;;;;;;;;;;;;;25.13;51.45;98674.44;15290691;19;20090;-51
2023/10/02 17:02:07;;;;;;;5.53;2.50;;;;;;;24.86;52.76;98669.59;15295789;19;19926;-54
2023/10/02 17:07:34;;;;;;;8.65;2.20;;;;;;;24.42;53.71;98681.16;15291646;19;20028;-53
2023/10/02 17:13:01;;;;;;;9.18;2.40;;;;;;;24.06;54.64;98674.06;15289438;19;20033;-52
2023/10/02 17:18:26;;;;;;;6.95;2.40;;;;;;;23.82;54.57;98683.19;15289163;19;20011;-52
2023/10/02 17:23:54;;;;;;;5.68;2.53;;;;;;;23.58;54.03;98667.81;15292215;19;20015;-53
2023/10/02 17:29:29;;;;;;;4.97;2.60;;;;;;;23.42;54.31;98666.63;15293337;19;20018;-53
2023/10/02 17:34:55;;;;;;;2.67;2.28;;;;;;;23.19;54.73;98660.88;15292975;19;20010;-54
2023/10/02 17:40:24;;;;;;;5.20;2.60;;;;;;;23.01;55.35;98667.25;15288936;19;20036;-53
2023/10/02 17:45:49;;;;;;;4.78;2.58;;;;;;;22.86;56.51;98669.66;15283461;19;20035;-54
2023/10/02 17:51:15;;;;;;;6.30;2.60;;;;;;;22.63;57.53;98663.84;15293197;19;20020;-54
2023/10/02 17:56:44;;;;;;;3.92;3.00;;;;;;;22.42;58.74;98662.44;15287705;19;20015;-53
2023/10/02 18:02:08;;;;;;;6.85;3.15;;;;;;;22.27;60.49;98657.34;15291663;19;20021;-56
2023/10/02 18:07:34;;;;;;;6.07;3.50;;;;;;;22.01;62.63;98653.88;15286621;19;20573;-55
2023/10/02 18:13:02;;;;;;;5.50;3.58;;;;;;;21.89;64.08;98652.97;15291648;19;20021;-57
2023/10/02 18:18:27;;;;;;;6.53;4.10;;;;;;;21.74;67.27;98647.88;15282617;19;20015;-53
2023/10/02 18:23:51;;;;;;;4.78;3.92;;;;;;;21.66;69.33;98648.19;15289039;19;20018;-55
2023/10/02 18:29:19;;;;;;;5.85;4.30;;;;;;;21.58;71.33;98659.44;15288682;19;20484;-54
2023/10/02 18:34:43;;;;;;;6.50;4.45;;;;;;;21.45;75.15;98649.44;15288943;19;20747;-54
2023/10/02 18:40:13;;;;;;;7.65;4.47;;;;;;;21.38;77.77;98649.50;15286069;19;20078;-55
2023/10/02 18:45:40;;;;;;;5.43;4.40;;;;;;;21.28;79.84;98644.56;15285765;19;20014;-54
2023/10/02 18:51:06;;;;;;;7.90;4.68;;;;;;;21.18;82.70;98641.47;15282054;19;20042;-55
2023/10/02 18:56:30;;;;;;;7.40;4.85;;;;;;;21.04;84.40;98644.34;15294657;19;20029;-52
2023/10/02 19:01:58;;;;;;;7.47;4.78;;;;;;;20.90;88.58;98635.41;15298817;19;20757;-56
2023/10/02 19:07:23;;;;;;;9.27;5.00;;;;;;;20.75;90.38;98634.91;15295919;19;20795;-52
2023/10/02 19:12:50;;;;;;;8.20;4.82;;;;;;;20.63;93.27;98632.00;15302177;19;20018;-53
2023/10/02 19:18:18;;;;;;;5.68;4.88;;;;;;;20.47;96.15;98627.91;15294222;19;20014;-55
2023/10/02 19:23:47;;;;;;;7.82;5.43;;;;;;;20.32;98.93;98626.31;15295579;19;20085;-54
2023/10/02 19:29:12;;;;;;;8.38;5.18;;;;;;;20.23;100.00;98621.31;15299301;19;20359;-56
2023/10/02 19:34:40;;;;;;;6.88;5.15;;;;;;;20.10;100.00;98612.13;15300965;19;20082;-54
2023/10/02 19:40:15;;;;;;;6.68;5.15;;;;;;;19.94;100.00;98613.47;15299647;19;20025;-56
2023/10/02 19:45:41;;;;;;;6.72;5.45;;;;;;;19.78;100.00;98603.00;15298051;19;20025;-52
2023/10/02 19:51:14;;;;;;;7.15;5.53;;;;;;;19.70;100.00;98607.63;15296888;19;20010;-51
2023/10/02 19:56:40;;;;;;;8.45;5.80;;;;;;;19.63;100.00;98595.91;15296791;19;20006;-53
2023/10/02 20:02:05;;;;;;;6.55;5.38;;;;;;;19.56;100.00;98597.84;15297730;19;20343;-53
2023/10/02 20:07:33;;;;;;;9.60;5.35;;;;;;;19.44;100.00;98594.09;15288886;19;20024;-53
2023/10/02 20:12:59;;;;;;;7.45;5.78;;;;;;;19.35;100.00;98579.81;15295853;19;20029;-52
2023/10/02 20:18:25;;;;;;;7.95;5.72;;;;;;;19.25;100.00;98570.19;15292856;19;20026;-52
2023/10/02 20:23:52;;;;;;;7.25;5.90;;;;;;;19.17;100.00;98578.59;15291976;19;20022;-53
2023/10/02 20:29:17;;;;;;;7.88;5.90;;;;;;;19.14;100.00;98575.44;15296216;19;20082;-52
2023/10/02 20:34:42;;;;;;;6.47;5.78;;;;;;;19.14;100.00;98575.44;15297354;19;20070;-54
2023/10/02 20:40:12;;;;;;;10.82;6.43;;;;;;;19.15;100.00;98567.06;15295586;19;20015;-54
2023/10/02 20:45:37;;;;;;;7.05;5.68;;;;;;;19.14;100.00;98564.53;15294886;19;20025;-51
2023/10/02 20:51:02;;;;;;;9.25;6.68;;;;;;;19.12;100.00;98562.00;15296915;19;20097;-54
2023/10/02 20:56:32;;;;;;;10.32;6.00;;;;;;;19.12;100.00;98551.09;15288312;19;20010;-53
2023/10/02 21:01:58;;;;;;;8.77;5.35;;;;;;;19.12;100.00;98551.09;15295933;19;20021;-51
2023/10/02 21:07:24;;;;;;;9.00;6.22;;;;;;;19.08;100.00;98539.75;15290444;19;20018;-53
2023/10/02 21:12:52;;;;;;;8.60;6.20;;;;;;;19.02;100.00;98535.13;15296073;19;20480;-55
2023/10/02 21:18:21;;;;;;;7.60;6.05;;;;;;;18.97;100.00;98540.41;15289650;19;20018;-55
2023/10/02 21:23:47;;;;;;;9.73;6.45;;;;;;;18.94;100.00;98529.91;15291810;19;20339;-55
2023/10/02 21:29:15;;;;;;;9.73;6.35;;;;;;;18.94;100.00;98529.91;15288242;19;20012;-57
2023/10/02 21:34:40;;;;;;;8.93;6.20;;;;;;;18.90;100.00;98528.63;15294809;19;20017;-55
2023/10/02 21:40:05;;;;;;;9.27;6.20;;;;;;;18.86;100.00;98530.94;15289160;19;20071;-52
2023/10/02 21:45:34;;;;;;;7.82;6.20;;;;;;;18.83;100.00;98531.34;15290425;19;20024;-55
2023/10/02 21:50:59;;;;;;;9.77;6.43;;;;;;;18.79;100.00;98524.66;15288446;19;20011;-51
2023/10/02 21:56:27;;;;;;;8.82;6.43;;;;;;;18.71;100.00;98525.72;15291219;19;20014;-53
2023/10/02 22:01:55;;;;;;;7.82;6.00;;;;;;;18.67;100.00;98524.47;15285722;19;20010;-52
2023/10/02 22:07:20;;;;;;;8.50;6.18;;;;;;;18.65;100.00;98518.38;15288136;19;20032;-54
2023/10/02 22:12:45;;;;;;;8.35;6.03;;;;;;;18.57;100.00;98510.41;15289064;19;20006;-55
2023/10/02 22:18:14;;;;;;;9.32;6.50;;;;;;;18.53;100.00;98498.22;15285244;19;20023;-52
2023/10/02 22:23:39;;;;;;;10.68;6.72;;;;;;;18.45;100.00;98493.84;15288769;19;20462;-52
2023/10/02 22:29:04;;;;;;;9.20;6.50;;;;;;;18.41;100.00;98479.75;15286189;19;20011;-52
2023/10/02 22:34:32;;;;;;;10.60;6.53;;;;;;;18.38;100.00;98485.66;15285063;19;20022;-54
2023/10/02 22:39:59;;;;;;;9.57;6.47;;;;;;;18.35;100.00;98483.34;15289525;19;20082;-54
2023/10/02 22:45:25;;;;;;;9.18;6.47;;;;;;;18.30;100.00;98481.25;15286041;19;20018;-55
2023/10/02 22:50:55;;;;;;;9.73;6.82;;;;;;;18.28;100.00;98474.34;15286536;19;20367;-54
2023/10/02 22:56:20;;;;;;;8.45;6.50;;;;;;;18.29;100.00;98455.03;15285614;19;20026;-52
2023/10/02 23:01:44;;;;;;;14.85;7.05;;;;;;;18.29;100.00;98433.22;15287554;19;20011;-54
2023/10/02 23:07:12;;;;;;;8.60;6.63;;;;;;;18.25;100.00;98434.69;15280537;19;20088;-55
2023/10/02 23:12:37;;;;;;;9.20;6.82;;;;;;;18.20;100.00;98430.91;15288247;19;20018;-54
2023/10/02 23:18:04;;;;;;;11.90;6.90;;;;;;;17.98;100.00;98428.41;15278163;19;20041;-53
2023/10/02 23:23:32;;;;;;;11.52;6.85;;;;;;;17.83;100.00;98431.28;15285912;19;20022;-55
2023/10/02 23:28:57;;;;;;;7.35;6.32;;;;;;;17.67;100.00;98424.38;15281840;19;20026;-55
2023/10/02 23:34:22;;;;;;;9.43;7.10;;;;;;;17.60;100.00;98420.78;15285454;19;20379;-52
2023/10/02 23:39:50;;;;;;;10.07;7.47;;;;;;;17.61;100.00;98419.72;15281463;19;20011;-55
2023/10/02 23:45:16;;;;;;;8.73;7.28;;;;;;;17.67;100.00;98413.47;15294808;19;20758;-55
2023/10/02 23:50:43;;;;;;;8.70;7.07;;;;;;;17.73;100.00;98412.63;15298215;19;20455;-54
2023/10/02 23:56:13;;;;;;;8.82;6.95;;;;;;;17.79;100.00;98406.34;15295712;19;20741;-50
